Airfield :
LOGIN :

Register | Disclaimer

   EN    FR    IT 

 










Legend :    VFR   Marginal VFR   IFR   Intensive IFR   Very Intensive IFR
Visi :
Ceiling :
>= 8 km
>= 3000ft
5 to 8 km
1000 to 3000 ft
1500m to 5 km
500 to 1000 ft
800 to 1500m
200 to 500 ft
< 800m
< 200 ft
Symbols :   Thunderstorms  Fog  Heavy snow  Heavy precipitations  Wind > 20 kt
SIGMETs :     Misc.  Thunderstorms  Icing  Turbulence  Mountain Waves  Volcanic Ashes







- Airport Elevation : 1036 ft
- IATA code : ERF


EDDE - Erfurt

EXPIRED METARs :
  • 241420Z 25013KT 220V280 9999 FEW040 22/11 Q1015 TEMPO 25015G25KT
  • 241350Z 28015G25KT 9999 FEW040 22/11 Q1015 TEMPO 27015G25KT
  • 241320Z 27017KT 9999 FEW040 22/11 Q1015 TEMPO 27015G25KT
  • 241250Z 27017KT 230V290 9999 FEW040 22/11 Q1015 TEMPO 27015G25KT
  • 241220Z 27016KT 240V300 9999 FEW040 22/11 Q1015 TEMPO 26015G25KT
  • 241150Z 27016KT 9999 FEW040 21/11 Q1015 TEMPO 26015G25KT

TAF TAF EDDE
Valid from the 24 at 12:00 until the 25 at 12:00 UTC


241100Z 2412/2512 25015KT CAVOK
TEMPO 2412/2415 26015G25KT
BECMG 2417/2419 25007KT
BECMG 2506/2508 25015G25KT
No reported NOTAMs for that airfield.
1 SIGMET reported for the München FIR (EDMM) :
 
Embedded thunderstorms
EDMM SIGMET 1 VALID 250500/250800 EDZM
EDMM MUNCHEN FIR EMBD TS FCST S OF N4750 TOP FL380 MOV E NC=



MET'MAP, your aeronautical weather chart ! - Copyright ORBIFLY December 2007 - Disclaimer

ORBIFLY MET'MAP TEAM :

Programming & Development : Alexandra Zaïnal
Concept & Development : Baudouin d'Aumeries
Co-Development & Prog : Marc-Olivier Méhu
Technical & hardware support : Manuel Goepfert

Contact : metmap@orbifly.com




SOURCES & CREDITS :

   NOAA